Time;durP1;ratioP1;P1;durP2;ratioP2;P2;SDS_P1;SDS_P2;PMS_P1;PMS_P2;Temp;Humidity;BMP_temperature;BMP_pressure;BME280_temperature;BME280_humidity;BME280_pressure;Samples;Min_cycle;Max_cycle;Signal;HPM_P1;HPM_P2
2022/10/23 00:01:38;;;;;;;3.55;2.70;;;16.40;68.80;;;;;;5070240;28;20065;-73
2022/10/23 00:04:08;;;;;;;4.63;2.72;;;16.50;68.80;;;;;;5070644;28;20059;-73
2022/10/23 00:06:35;;;;;;;4.97;2.70;;;16.50;68.80;;;;;;5070229;28;20416;-73
2022/10/23 00:09:04;;;;;;;5.03;2.90;;;16.40;69.30;;;;;;5070305;28;20140;-73
2022/10/23 00:11:31;;;;;;;5.47;2.70;;;16.40;68.80;;;;;;5086338;28;20054;-73
2022/10/23 00:13:58;;;;;;;4.53;2.63;;;16.40;68.80;;;;;;5090610;28;20139;-73
2022/10/23 00:16:25;;;;;;;3.40;2.50;;;16.40;68.80;;;;;;5090686;28;20056;-74
2022/10/23 00:18:52;;;;;;;4.18;2.47;;;16.40;68.80;;;;;;5090517;28;20489;-72
2022/10/23 00:21:18;;;;;;;3.42;2.30;;;16.40;68.80;;;;;;5091090;28;20047;-72
2022/10/23 00:23:45;;;;;;;3.50;2.47;;;16.40;68.80;;;;;;5090277;28;20055;-74
2022/10/23 00:26:14;;;;;;;4.05;2.40;;;16.40;68.80;;;;;;5071018;28;20527;-73
2022/10/23 00:28:41;;;;;;;4.20;2.78;;;16.40;68.80;;;;;;5069817;28;20051;-72
2022/10/23 00:31:08;;;;;;;4.47;2.63;;;16.40;68.80;;;;;;5070583;28;20055;-73
2022/10/23 00:33:35;;;;;;;4.57;2.90;;;16.40;68.70;;;;;;5073659;28;20056;-73
2022/10/23 00:36:04;;;;;;;4.55;2.50;;;16.40;68.80;;;;;;5073928;28;20052;-73
2022/10/23 00:38:31;;;;;;;2.90;2.50;;;16.40;68.80;;;;;;5074700;28;20063;-73
2022/10/23 00:40:57;;;;;;;3.95;2.70;;;16.40;68.80;;;;;;5093504;28;20054;-73
2022/10/23 00:43:28;;;;;;;4.90;2.58;;;16.40;68.80;;;;;;5094090;28;20056;-73
2022/10/23 00:45:55;;;;;;;5.85;2.40;;;16.40;68.70;;;;;;5093685;28;20051;-73
2022/10/23 00:48:22;;;;;;;4.55;2.65;;;16.40;68.80;;;;;;5094730;28;20386;-73
2022/10/23 00:50:49;;;;;;;5.28;2.75;;;16.40;68.70;;;;;;5093320;28;20048;-73
2022/10/23 00:53:15;;;;;;;3.33;2.50;;;16.40;68.80;;;;;;5091611;28;20068;-73
2022/10/23 00:55:45;;;;;;;4.88;2.88;;;16.40;68.70;;;;;;5074382;28;20416;-73
2022/10/23 00:58:12;;;;;;;3.22;2.30;;;16.40;68.70;;;;;;5073386;28;20142;-73
2022/10/23 01:00:45;;;;;;;3.42;2.35;;;16.40;68.80;;;;;;5073248;28;20083;-73
2022/10/23 01:03:12;;;;;;;3.20;2.20;;;16.40;68.70;;;;;;5073350;28;20063;-73
2022/10/23 01:05:42;;;;;;;2.78;2.20;;;16.40;68.70;;;;;;5073509;28;20181;-73
2022/10/23 01:08:12;;;;;;;4.00;2.50;;;16.30;68.70;;;;;;5078388;28;20055;-73
2022/10/23 01:10:41;;;;;;;3.75;2.38;;;16.30;68.70;;;;;;5093340;28;20048;-73
2022/10/23 01:13:11;;;;;;;7.40;2.83;;;16.30;68.70;;;;;;5093541;28;20062;-73
2022/10/23 01:15:41;;;;;;;3.70;2.25;;;16.30;68.70;;;;;;5093448;28;20055;-73
2022/10/23 01:18:12;;;;;;;3.40;2.28;;;16.30;68.70;;;;;;5092980;28;20052;-73
2022/10/23 01:20:41;;;;;;;4.00;2.63;;;16.30;68.60;;;;;;5093029;28;20054;-73
2022/10/23 01:23:37;;;;;;;4.15;2.60;;;16.30;68.70;;;;;;5085643;28;20126;-73
2022/10/23 01:26:14;;;;;;;3.78;2.35;;;16.30;68.60;;;;;;5062643;28;20067;-73
2022/10/23 01:28:45;;;;;;;3.25;2.40;;;16.30;68.70;;;;;;5073098;28;20083;-73
2022/10/23 01:31:14;;;;;;;4.47;2.47;;;16.30;68.70;;;;;;5072216;28;20059;-73
2022/10/23 01:33:42;;;;;;;3.80;2.22;;;16.30;68.70;;;;;;5073859;28;20055;-73
2022/10/23 01:36:11;;;;;;;2.78;2.30;;;16.30;68.70;;;;;;5072739;28;20059;-73
2022/10/23 01:38:41;;;;;;;3.33;2.20;;;16.30;68.60;;;;;;5072952;28;20053;-73
2022/10/23 01:41:10;;;;;;;2.67;2.20;;;16.30;68.60;;;;;;5072489;28;20139;-73
2022/10/23 01:43:39;;;;;;;3.30;2.20;;;16.30;68.60;;;;;;5071667;28;20058;-73
2022/10/23 01:46:09;;;;;;;3.42;2.20;;;16.30;68.60;;;;;;5072748;28;20048;-73
2022/10/23 01:48:36;;;;;;;3.67;2.28;;;16.30;68.60;;;;;;5081450;28;20083;-73
2022/10/23 01:51:04;;;;;;;2.97;2.17;;;16.30;68.60;;;;;;5092340;28;20052;-73
2022/10/23 01:53:33;;;;;;;3.70;2.40;;;16.30;68.60;;;;;;5092647;28;20052;-73
2022/10/23 01:56:00;;;;;;;3.92;2.30;;;16.30;68.60;;;;;;5092742;28;20047;-73
2022/10/23 01:58:26;;;;;;;3.20;2.30;;;16.30;68.60;;;;;;5092616;28;20060;-73
2022/10/23 02:00:53;;;;;;;2.75;2.10;;;16.30;68.60;;;;;;5092359;28;20058;-73
2022/10/23 02:03:21;;;;;;;2.33;2.00;;;16.30;68.60;;;;;;5082571;28;20408;-73
2022/10/23 02:05:48;;;;;;;2.85;2.20;;;16.30;68.60;;;;;;5072220;28;20059;-73
2022/10/23 02:08:15;;;;;;;3.05;2.08;;;16.30;68.60;;;;;;5072248;28;20063;-73
2022/10/23 02:10:43;;;;;;;2.70;2.03;;;16.30;68.60;;;;;;5072791;28;20403;-73
2022/10/23 02:13:12;;;;;;;2.38;2.17;;;16.30;68.60;;;;;;5071871;28;20058;-73
2022/10/23 02:15:44;;;;;;;3.33;2.10;;;16.30;68.60;;;;;;5071712;28;20052;-73
2022/10/23 02:18:18;;;;;;;2.78;2.10;;;16.30;68.60;;;;;;5084633;28;20060;-73
2022/10/23 02:20:48;;;;;;;2.83;2.10;;;16.30;68.60;;;;;;5092877;28;20338;-73
2022/10/23 02:23:19;;;;;;;2.70;1.98;;;16.30;68.60;;;;;;5092185;28;20515;-73
2022/10/23 02:25:48;;;;;;;2.38;2.00;;;16.30;68.60;;;;;;5092150;28;20062;-73
2022/10/23 02:28:16;;;;;;;2.92;2.17;;;16.30;68.60;;;;;;5091731;28;20054;-73
2022/10/23 02:30:43;;;;;;;3.20;1.90;;;16.20;68.50;;;;;;5091725;28;20532;-73
2022/10/23 02:33:10;;;;;;;3.08;2.22;;;16.20;68.50;;;;;;5076392;28;20052;-73
2022/10/23 02:35:37;;;;;;;2.35;1.90;;;16.20;68.50;;;;;;5071706;28;20056;-73
2022/10/23 02:38:31;;;;;;;2.92;2.08;;;16.20;68.50;;;;;;5071646;28;20049;-73
2022/10/23 02:40:59;;;;;;;3.33;2.22;;;16.20;68.40;;;;;;5071368;28;20055;-73
2022/10/23 02:43:27;;;;;;;2.35;1.95;;;16.20;68.60;;;;;;5071363;28;20056;-73
2022/10/23 02:45:56;;;;;;;2.38;2.03;;;16.20;68.50;;;;;;5071778;28;20068;-73
2022/10/23 02:48:23;;;;;;;2.30;1.98;;;16.20;68.50;;;;;;5091852;28;20408;-73
2022/10/23 02:50:52;;;;;;;2.70;2.00;;;16.20;68.50;;;;;;5090873;28;20050;-73
2022/10/23 02:53:22;;;;;;;3.05;2.05;;;16.20;68.50;;;;;;5091532;28;20082;-73
2022/10/23 02:55:56;;;;;;;2.58;2.00;;;16.20;68.60;;;;;;5091585;28;20082;-73
2022/10/23 02:58:26;;;;;;;2.40;2.00;;;16.20;68.60;;;;;;5091613;28;20052;-73
2022/10/23 03:00:55;;;;;;;2.63;2.00;;;16.20;68.60;;;;;;5088417;28;20044;-73
2022/10/23 03:03:24;;;;;;;2.65;2.05;;;16.20;68.60;;;;;;5071007;28;20139;-73
2022/10/23 03:05:50;;;;;;;3.35;2.17;;;16.20;68.60;;;;;;5071358;28;20061;-73
2022/10/23 03:08:17;;;;;;;2.72;1.85;;;16.20;68.60;;;;;;5071095;28;20055;-73
2022/10/23 03:10:44;;;;;;;4.13;2.30;;;16.10;69.30;;;;;;5070440;28;20052;-73
2022/10/23 03:13:12;;;;;;;2.08;1.80;;;16.10;68.50;;;;;;5071063;28;20078;-73
2022/10/23 03:15:39;;;;;;;3.15;1.80;;;16.10;68.50;;;;;;5076170;28;20078;-73
2022/10/23 03:18:05;;;;;;;3.10;1.95;;;16.10;68.50;;;;;;5087661;28;20070;-73
2022/10/23 03:20:32;;;;;;;2.53;2.05;;;16.10;68.50;;;;;;5071642;28;20048;-73
2022/10/23 03:22:59;;;;;;;2.55;1.98;;;16.10;68.60;;;;;;5070831;28;20060;-73
2022/10/23 03:25:26;;;;;;;2.45;1.85;;;16.10;68.50;;;;;;5070784;28;20056;-73
2022/10/23 03:27:52;;;;;;;3.70;1.92;;;16.10;68.50;;;;;;5070329;28;20059;-73
2022/10/23 03:30:20;;;;;;;3.25;1.80;;;16.10;68.50;;;;;;5070566;28;20049;-73
2022/10/23 03:32:47;;;;;;;3.65;1.75;;;16.10;68.50;;;;;;5080637;28;20070;-73
2022/10/23 03:35:14;;;;;;;2.08;1.88;;;16.10;68.50;;;;;;5091161;28;20060;-73
2022/10/23 03:37:41;;;;;;;2.25;2.03;;;16.10;68.60;;;;;;5092119;28;20558;-73
2022/10/23 03:40:09;;;;;;;2.35;2.10;;;16.10;68.60;;;;;;5090477;28;20051;-73
2022/10/23 03:42:35;;;;;;;2.53;1.80;;;16.10;68.50;;;;;;5091628;28;20229;-73
2022/10/23 03:45:02;;;;;;;4.40;2.20;;;16.10;68.50;;;;;;5091398;28;20052;-73
2022/10/23 03:47:31;;;;;;;3.10;2.10;;;16.10;68.50;;;;;;5082013;28;20049;-73
2022/10/23 03:49:58;;;;;;;2.63;2.05;;;16.10;68.50;;;;;;5070568;28;20056;-73
2022/10/23 03:52:25;;;;;;;3.15;2.30;;;16.10;68.50;;;;;;5070399;28;20049;-73
2022/10/23 03:54:51;;;;;;;2.42;1.90;;;16.10;68.50;;;;;;5071528;28;20410;-73
2022/10/23 03:57:18;;;;;;;3.22;2.05;;;16.10;68.50;;;;;;5070547;28;20053;-73
2022/10/23 03:59:45;;;;;;;2.45;2.08;;;16.10;68.40;;;;;;5070774;28;20052;-73
2022/10/23 04:02:11;;;;;;;2.58;2.03;;;16.10;68.40;;;;;;5082530;28;20048;-73
2022/10/23 04:04:39;;;;;;;2.67;2.00;;;16.10;68.40;;;;;;5090923;28;20056;-73
2022/10/23 04:07:06;;;;;;;2.47;2.00;;;16.10;68.40;;;;;;5093499;28;20060;-73
2022/10/23 04:09:33;;;;;;;2.55;1.90;;;16.10;68.40;;;;;;5094324;28;20056;-73
2022/10/23 04:11:59;;;;;;;2.10;1.85;;;16.10;68.40;;;;;;5094074;28;20051;-73
2022/10/23 04:14:26;;;;;;;2.50;1.95;;;16.10;68.50;;;;;;5094585;28;20062;-73
2022/10/23 04:16:53;;;;;;;2.25;1.83;;;16.10;68.40;;;;;;5091736;28;20420;-73
2022/10/23 04:19:20;;;;;;;2.60;1.90;;;16.10;68.50;;;;;;5073917;28;20058;-73
2022/10/23 04:21:48;;;;;;;2.25;1.77;;;16.00;68.40;;;;;;5073632;28;20063;-73
2022/10/23 04:24:14;;;;;;;2.53;1.80;;;16.10;68.50;;;;;;5077618;28;20507;-73
2022/10/23 04:26:41;;;;;;;2.28;1.80;;;16.10;68.50;;;;;;5089392;28;20058;-73
2022/10/23 04:29:08;;;;;;;2.28;2.05;;;16.00;68.40;;;;;;5075683;28;20055;-73
2022/10/23 04:31:34;;;;;;;2.35;1.90;;;16.00;68.90;;;;;;5073319;28;20055;-73
2022/10/23 04:34:01;;;;;;;2.17;1.88;;;16.00;68.40;;;;;;5075117;28;20409;-73
2022/10/23 04:36:28;;;;;;;2.00;1.70;;;16.00;68.40;;;;;;5073718;28;20045;-73
2022/10/23 04:38:56;;;;;;;1.98;1.77;;;16.00;68.40;;;;;;5073998;28;20052;-73
2022/10/23 04:41:23;;;;;;;2.53;1.90;;;16.00;68.40;;;;;;5081910;28;20555;-73
2022/10/23 04:43:49;;;;;;;2.33;1.75;;;16.00;68.40;;;;;;5093827;28;20068;-73
2022/10/23 04:46:16;;;;;;;2.10;1.90;;;16.00;68.40;;;;;;5094146;28;20056;-73
2022/10/23 04:48:43;;;;;;;2.20;1.70;;;16.00;68.40;;;;;;5093937;28;20052;-73
2022/10/23 04:51:10;;;;;;;2.20;1.88;;;16.00;68.40;;;;;;5094479;28;20048;-73
2022/10/23 04:53:37;;;;;;;3.08;1.77;;;16.00;68.40;;;;;;5094946;28;20052;-73
2022/10/23 04:56:06;;;;;;;2.22;1.83;;;16.00;68.40;;;;;;5085625;28;20059;-73
2022/10/23 04:58:34;;;;;;;2.20;1.80;;;16.00;68.40;;;;;;5073581;28;20052;-73
2022/10/23 05:01:01;;;;;;;2.45;1.90;;;16.00;68.40;;;;;;5073225;28;20052;-73
2022/10/23 05:03:27;;;;;;;2.55;1.95;;;16.00;68.40;;;;;;5073355;28;20052;-73
2022/10/23 05:05:54;;;;;;;2.20;1.90;;;16.00;68.40;;;;;;5073702;28;20052;-73
2022/10/23 05:08:21;;;;;;;2.00;1.80;;;16.00;68.40;;;;;;5073453;28;20056;-73
2022/10/23 05:10:49;;;;;;;2.40;1.83;;;16.00;68.50;;;;;;5082797;28;20447;-73
2022/10/23 05:13:18;;;;;;;2.38;2.05;;;16.00;68.40;;;;;;5093365;28;20063;-73
2022/10/23 05:15:46;;;;;;;3.08;1.75;;;15.90;68.30;;;;;;5093163;28;20515;-73
2022/10/23 05:18:14;;;;;;;2.00;1.63;;;16.00;68.40;;;;;;5092718;28;20054;-73
2022/10/23 05:20:42;;;;;;;2.00;1.70;;;16.00;68.40;;;;;;5093225;28;20059;-73
2022/10/23 05:23:09;;;;;;;2.33;2.00;;;16.00;68.40;;;;;;5093379;28;20048;-73
2022/10/23 05:25:36;;;;;;;2.40;1.80;;;15.90;68.40;;;;;;5082154;28;20063;-73
2022/10/23 05:28:03;;;;;;;2.40;2.00;;;15.90;68.40;;;;;;5072929;28;20056;-73
2022/10/23 05:30:31;;;;;;;2.22;1.80;;;15.90;68.40;;;;;;5073727;28;20049;-73
2022/10/23 05:32:59;;;;;;;2.45;1.95;;;15.90;68.40;;;;;;5072388;28;20057;-73
2022/10/23 05:35:26;;;;;;;2.20;2.00;;;15.90;68.40;;;;;;5072365;28;20062;-73
2022/10/23 05:37:53;;;;;;;2.25;2.00;;;15.90;68.30;;;;;;5072965;28;20450;-73
2022/10/23 05:40:20;;;;;;;2.42;2.00;;;15.90;68.30;;;;;;5086246;28;20389;-73
2022/10/23 05:42:46;;;;;;;4.18;2.20;;;15.90;68.40;;;;;;5092551;28;20048;-73
2022/10/23 05:45:13;;;;;;;2.55;2.03;;;15.90;68.40;;;;;;5092797;28;20052;-73
2022/10/23 05:47:43;;;;;;;2.22;1.90;;;15.90;68.40;;;;;;5092782;28;20511;-73
2022/10/23 05:50:10;;;;;;;2.65;2.10;;;15.90;68.30;;;;;;5092647;28;20054;-73
2022/10/23 05:52:37;;;;;;;2.22;1.75;;;15.90;68.40;;;;;;5092263;28;20078;-74
2022/10/23 05:55:04;;;;;;;2.75;2.00;;;15.90;68.40;;;;;;5080705;28;20055;-73
2022/10/23 05:57:32;;;;;;;2.45;1.83;;;15.90;68.30;;;;;;5073093;28;20629;-73
2022/10/23 05:59:59;;;;;;;2.55;1.90;;;15.90;68.30;;;;;;5071791;28;20062;-74
2022/10/23 06:02:26;;;;;;;2.33;2.03;;;15.90;68.40;;;;;;5072135;28;20048;-73
2022/10/23 06:04:54;;;;;;;2.22;1.90;;;15.90;68.30;;;;;;5072147;28;20060;-73
2022/10/23 06:07:23;;;;;;;3.22;2.10;;;15.90;68.30;;;;;;5073140;28;20048;-73
2022/10/23 06:09:51;;;;;;;2.00;1.80;;;15.90;68.30;;;;;;5087556;28;20055;-73
2022/10/23 06:12:18;;;;;;;2.05;1.85;;;15.90;68.30;;;;;;5091719;28;20052;-73
2022/10/23 06:14:45;;;;;;;2.25;1.73;;;15.90;68.30;;;;;;5091869;28;20051;-73
2022/10/23 06:17:12;;;;;;;2.50;1.90;;;15.90;68.30;;;;;;5092143;28;20056;-73
2022/10/23 06:19:38;;;;;;;2.88;2.05;;;15.90;68.30;;;;;;5075195;28;20052;-73
2022/10/23 06:22:06;;;;;;;2.13;1.60;;;15.90;68.20;;;;;;5091726;28;20052;-73
2022/10/23 06:24:33;;;;;;;2.33;1.85;;;15.90;68.30;;;;;;5076489;28;20058;-72
2022/10/23 06:27:00;;;;;;;2.45;2.00;;;15.90;68.30;;;;;;5072674;28;20052;-72
2022/10/23 06:29:27;;;;;;;2.88;1.90;;;15.90;68.30;;;;;;5070982;28;20066;-72
2022/10/23 06:31:53;;;;;;;2.15;1.95;;;15.80;68.20;;;;;;5070856;28;20052;-72
2022/10/23 06:34:20;;;;;;;2.70;2.03;;;15.90;68.30;;;;;;5083365;28;20444;-72
2022/10/23 06:36:47;;;;;;;3.35;2.20;;;15.90;68.30;;;;;;5089911;28;20051;-72
2022/10/23 06:39:15;;;;;;;3.00;2.10;;;15.90;68.30;;;;;;5090763;28;20481;-73
2022/10/23 06:41:43;;;;;;;2.65;2.10;;;15.90;68.30;;;;;;5081856;28;20052;-73
2022/10/23 06:44:10;;;;;;;2.15;1.70;;;15.90;68.30;;;;;;5082460;28;20131;-73
2022/10/23 06:46:37;;;;;;;2.47;1.95;;;15.90;68.30;;;;;;5081515;28;20063;-73
2022/10/23 06:49:03;;;;;;;6.15;2.10;;;15.90;68.30;;;;;;5079780;28;20048;-73
2022/10/23 06:51:30;;;;;;;2.67;2.03;;;15.80;70.90;;;;;;5072326;28;20545;-74
2022/10/23 06:53:57;;;;;;;1.98;1.77;;;15.80;68.30;;;;;;5070724;28;20060;-73
2022/10/23 06:56:28;;;;;;;2.30;1.90;;;15.80;68.30;;;;;;5072311;28;20047;-73
2022/10/23 06:58:54;;;;;;;2.42;1.90;;;15.80;68.30;;;;;;5072192;28;20044;-73
2022/10/23 07:01:21;;;;;;;2.30;1.70;;;15.60;68.20;;;;;;5071854;28;20061;-74
2022/10/23 07:03:48;;;;;;;2.40;1.80;;;15.80;68.30;;;;;;5073597;28;20050;-74
2022/10/23 07:06:14;;;;;;;2.60;2.08;;;15.90;68.40;;;;;;5091804;28;20052;-73
2022/10/23 07:08:41;;;;;;;2.42;1.80;;;15.90;68.30;;;;;;5091146;28;20082;-74
2022/10/23 07:11:12;;;;;;;2.53;2.00;;;15.90;68.30;;;;;;5090471;28;20058;-74
2022/10/23 07:13:49;;;;;;;2.78;2.03;;;15.90;68.30;;;;;;5090895;28;20054;-74
2022/10/23 07:16:20;;;;;;;2.08;1.70;;;15.90;68.30;;;;;;5083769;28;20098;-74
2022/10/23 07:18:47;;;;;;;2.95;1.90;;;15.90;68.80;;;;;;5075379;28;20056;-75
2022/10/23 07:21:13;;;;;;;2.40;1.83;;;16.00;68.30;;;;;;5070491;28;20063;-74
2022/10/23 07:23:40;;;;;;;2.40;1.65;;;16.00;68.20;;;;;;5071933;28;20044;-74
2022/10/23 07:26:08;;;;;;;2.17;1.88;;;16.00;68.20;;;;;;5070916;28;20071;-75
2022/10/23 07:28:34;;;;;;;1.98;1.77;;;16.10;68.20;;;;;;5070517;28;20057;-75
2022/10/23 07:31:03;;;;;;;3.80;1.90;;;16.20;68.10;;;;;;5076334;28;20511;-76
2022/10/23 07:33:29;;;;;;;4.60;1.90;;;16.20;68.00;;;;;;5084472;28;20555;-75
2022/10/23 07:35:56;;;;;;;2.15;1.67;;;16.20;68.00;;;;;;5080878;28;20061;-75
2022/10/23 07:38:23;;;;;;;2.20;1.60;;;16.30;68.00;;;;;;5082555;28;20044;-75
2022/10/23 07:40:49;;;;;;;2.60;1.67;;;16.30;68.00;;;;;;5078977;28;20456;-75
2022/10/23 07:43:17;;;;;;;1.88;1.60;;;16.30;67.90;;;;;;5088227;28;20064;-75
2022/10/23 07:45:46;;;;;;;3.08;1.58;;;16.40;67.80;;;;;;5082997;28;20048;-74
2022/10/23 07:48:14;;;;;;;2.88;2.05;;;16.40;67.80;;;;;;5084918;28;20052;-74
2022/10/23 07:50:40;;;;;;;2.13;1.73;;;16.50;67.70;;;;;;5086849;28;20392;-73
2022/10/23 07:53:07;;;;;;;2.00;1.60;;;16.50;67.70;;;;;;5088932;28;20054;-74
2022/10/23 07:55:34;;;;;;;2.63;1.73;;;16.50;67.60;;;;;;5094877;28;20396;-74
2022/10/23 07:58:00;;;;;;;2.72;1.70;;;16.60;67.60;;;;;;5083002;28;20047;-73
2022/10/23 08:00:27;;;;;;;1.85;1.60;;;16.60;67.50;;;;;;5086018;28;20054;-74
2022/10/23 08:02:54;;;;;;;1.77;1.50;;;16.60;67.40;;;;;;5082357;28;20059;-74
2022/10/23 08:05:22;;;;;;;1.70;1.45;;;16.60;67.40;;;;;;5086810;28;20059;-74
2022/10/23 08:07:49;;;;;;;2.30;1.60;;;16.60;67.30;;;;;;5082898;28;20048;-73
2022/10/23 08:10:16;;;;;;;1.85;1.60;;;16.70;67.30;;;;;;5085098;28;20054;-72
2022/10/23 08:12:43;;;;;;;2.60;1.80;;;16.70;67.30;;;;;;5082113;28;20048;-72
2022/10/23 08:15:10;;;;;;;1.67;1.40;;;16.70;67.40;;;;;;5080352;28;20058;-72
2022/10/23 08:17:38;;;;;;;2.05;1.60;;;16.70;67.40;;;;;;5082881;28;20062;-72
2022/10/23 08:20:05;;;;;;;3.30;1.95;;;16.70;67.30;;;;;;5087616;28;20504;-73
2022/10/23 08:22:35;;;;;;;2.22;1.70;;;16.80;67.40;;;;;;5081903;28;20044;-73
2022/10/23 08:25:02;;;;;;;2.33;1.90;;;16.80;67.60;;;;;;5085606;28;20056;-73
2022/10/23 08:27:29;;;;;;;2.30;1.90;;;16.80;67.50;;;;;;5110003;28;20047;-72
2022/10/23 08:29:55;;;;;;;3.58;1.98;;;16.80;67.50;;;;;;5099747;28;20052;-74
2022/10/23 08:32:22;;;;;;;3.33;1.50;;;16.90;67.40;;;;;;5094101;28;20059;-74
2022/10/23 08:34:49;;;;;;;3.97;1.70;;;16.90;67.40;;;;;;5086524;28;20400;-74
2022/10/23 08:37:15;;;;;;;2.13;1.60;;;16.90;67.30;;;;;;5083043;28;20048;-73
2022/10/23 08:39:43;;;;;;;1.98;1.60;;;16.90;67.20;;;;;;5091605;28;20048;-74
2022/10/23 08:42:18;;;;;;;2.67;1.77;;;16.90;67.20;;;;;;5090225;28;20404;-74
2022/10/23 08:44:50;;;;;;;4.00;2.00;;;17.00;67.30;;;;;;5080329;28;20052;-74
2022/10/23 08:47:18;;;;;;;2.10;1.60;;;16.90;67.20;;;;;;5082218;28;20051;-74
2022/10/23 08:49:47;;;;;;;2.17;1.70;;;17.00;67.20;;;;;;5083212;28;20051;-74
2022/10/23 08:52:16;;;;;;;3.35;1.60;;;17.00;67.20;;;;;;5091564;28;20139;-74
2022/10/23 08:54:54;;;;;;;3.13;1.55;;;15.30;66.20;;;;;;5092246;28;20055;-74
2022/10/23 08:57:22;;;;;;;2.95;1.70;;;17.00;67.10;;;;;;5084891;28;20056;-74
2022/10/23 08:59:50;;;;;;;2.10;1.42;;;17.00;67.10;;;;;;5083374;28;20396;-73
2022/10/23 09:02:19;;;;;;;2.00;1.60;;;17.10;67.10;;;;;;5081986;28;20567;-74
2022/10/23 09:04:48;;;;;;;2.20;1.55;;;17.00;67.00;;;;;;5083008;28;20056;-74
2022/10/23 09:07:19;;;;;;;2.50;1.60;;;17.10;67.10;;;;;;5083787;28;20070;-74
2022/10/23 09:09:55;;;;;;;2.10;1.63;;;17.10;67.00;;;;;;5086653;28;20420;-74
2022/10/23 09:12:22;;;;;;;2.08;1.50;;;17.10;67.00;;;;;;5084535;28;20485;-74
2022/10/23 09:15:02;;;;;;;1.83;1.50;;;17.10;66.90;;;;;;5086531;28;20062;-74
2022/10/23 09:17:30;;;;;;;2.17;1.65;;;17.20;66.90;;;;;;5092914;28;20052;-74
2022/10/23 09:20:00;;;;;;;2.00;1.60;;;17.20;66.90;;;;;;5090909;28;20048;-74
2022/10/23 09:22:27;;;;;;;3.05;1.70;;;17.20;66.90;;;;;;5089707;28;20051;-75
2022/10/23 09:24:55;;;;;;;3.78;1.70;;;17.20;66.90;;;;;;5113158;28;20051;-75
2022/10/23 09:27:22;;;;;;;4.22;1.88;;;17.20;66.80;;;;;;5098135;28;20056;-75
2022/10/23 09:29:49;;;;;;;2.00;1.60;;;17.30;66.80;;;;;;5092807;28;20505;-74
2022/10/23 09:32:16;;;;;;;1.80;1.40;;;17.30;66.80;;;;;;5092375;28;20054;-74
2022/10/23 09:34:51;;;;;;;2.38;1.50;;;17.30;66.80;;;;;;5092969;28;20062;-74
2022/10/23 09:37:21;;;;;;;2.40;1.80;;;17.30;66.80;;;;;;5086861;28;20409;-74
2022/10/23 09:39:48;;;;;;;1.90;1.40;;;17.30;66.80;;;;;;5072223;28;20056;-73
2022/10/23 09:42:21;;;;;;;2.83;1.70;;;17.30;66.80;;;;;;5072140;28;20047;-73
2022/10/23 09:44:49;;;;;;;2.08;1.60;;;17.40;67.00;;;;;;5072216;28;20056;-74
2022/10/23 09:47:19;;;;;;;2.83;1.75;;;17.40;67.00;;;;;;5071734;28;20063;-74
2022/10/23 09:49:47;;;;;;;2.38;1.60;;;17.40;67.00;;;;;;5072577;28;20079;-74
2022/10/23 09:52:23;;;;;;;3.55;1.83;;;17.40;67.00;;;;;;5090029;28;20048;-73
2022/10/23 09:54:51;;;;;;;3.58;1.67;;;17.50;67.00;;;;;;5092641;28;20056;-73
2022/10/23 09:57:23;;;;;;;3.53;2.00;;;17.50;67.00;;;;;;5092048;28;20067;-73
2022/10/23 09:59:51;;;;;;;5.75;2.60;;;17.50;66.90;;;;;;5092485;28;20056;-74
2022/10/23 10:02:21;;;;;;;8.02;2.90;;;17.40;66.90;;;;;;5092627;28;20062;-74
2022/10/23 10:04:47;;;;;;;10.95;3.70;;;17.50;66.90;;;;;;5101210;28;20595;-73
2022/10/23 10:07:19;;;;;;;5.22;2.60;;;17.50;66.90;;;;;;5089961;28;20071;-73
2022/10/23 10:09:46;;;;;;;9.55;3.05;;;17.50;66.90;;;;;;5091832;28;20056;-73
2022/10/23 10:12:25;;;;;;;7.40;3.00;;;17.40;66.90;;;;;;5091837;28;20105;-73
2022/10/23 10:14:55;;;;;;;6.20;2.80;;;17.40;67.00;;;;;;5091185;28;20055;-74
2022/10/23 10:17:28;;;;;;;6.45;2.60;;;17.50;67.10;;;;;;5072621;28;20450;-74
2022/10/23 10:20:07;;;;;;;4.45;2.45;;;17.40;67.20;;;;;;5071102;28;20075;-74
2022/10/23 10:22:38;;;;;;;6.28;2.67;;;17.40;67.40;;;;;;5072068;28;20066;-74
2022/10/23 10:25:09;;;;;;;5.05;2.50;;;17.40;67.40;;;;;;5084295;28;20131;-74
2022/10/23 10:27:44;;;;;;;5.18;2.22;;;17.50;67.40;;;;;;5091417;28;20062;-74
2022/10/23 10:30:14;;;;;;;4.80;2.60;;;17.50;67.90;;;;;;5085583;28;20137;-74
2022/10/23 10:32:44;;;;;;;4.75;2.40;;;17.50;68.10;;;;;;5071215;28;20049;-74
2022/10/23 10:35:23;;;;;;;4.93;2.33;;;17.40;68.10;;;;;;5076106;28;20390;-74
2022/10/23 10:38:01;;;;;;;5.65;2.40;;;17.40;68.10;;;;;;5075686;28;20055;-74
2022/10/23 10:40:30;;;;;;;5.30;2.45;;;17.40;68.20;;;;;;5070783;28;20064;-74
2022/10/23 10:43:09;;;;;;;4.55;2.10;;;17.40;68.30;;;;;;5072329;28;20044;-74
2022/10/23 10:45:38;;;;;;;4.47;2.00;;;17.40;68.30;;;;;;5071361;28;20052;-74
2022/10/23 10:48:28;;;;;;;4.28;2.05;;;17.40;68.30;;;;;;5071296;28;20056;-73
2022/10/23 10:50:58;;;;;;;5.35;2.33;;;17.40;68.20;;;;;;5069279;28;20060;-73
2022/10/23 10:53:27;;;;;;;7.25;2.42;;;17.40;68.20;;;;;;5070936;28;20044;-74
2022/10/23 10:55:54;;;;;;;3.53;2.15;;;17.40;68.20;;;;;;5072045;28;20044;-74
2022/10/23 10:58:27;;;;;;;5.50;2.40;;;17.40;68.10;;;;;;5071272;28;20056;-74
2022/10/23 11:00:55;;;;;;;4.68;2.40;;;17.40;68.10;;;;;;5070740;28;20052;-74
2022/10/23 11:03:28;;;;;;;3.95;2.22;;;17.40;68.10;;;;;;5094578;28;20055;-74
2022/10/23 11:05:55;;;;;;;4.43;2.20;;;17.40;68.10;;;;;;5071317;28;20540;-74
2022/10/23 11:08:26;;;;;;;3.15;2.00;;;17.40;68.10;;;;;;5078948;28;20054;-74
2022/10/23 11:10:55;;;;;;;5.28;2.20;;;17.40;68.10;;;;;;5071813;28;20539;-74
2022/10/23 11:13:26;;;;;;;3.33;2.00;;;17.40;68.10;;;;;;5076847;28;20051;-74
2022/10/23 11:15:54;;;;;;;4.75;2.40;;;17.40;68.10;;;;;;5091719;28;20058;-74
2022/10/23 11:18:23;;;;;;;3.95;2.00;;;17.40;68.10;;;;;;5112522;28;20130;-74
2022/10/23 11:20:58;;;;;;;3.42;1.90;;;17.30;68.00;;;;;;5093323;28;20054;-75
2022/10/23 11:23:42;;;;;;;6.05;2.53;;;17.40;68.00;;;;;;5092458;28;20062;-73
2022/10/23 11:26:14;;;;;;;4.15;2.28;;;17.40;68.10;;;;;;5090970;28;20483;-74
2022/10/23 11:28:52;;;;;;;4.80;2.33;;;17.40;68.20;;;;;;5092115;28;20044;-75
2022/10/23 11:31:23;;;;;;;4.72;2.20;;;17.40;68.20;;;;;;5087374;28;20062;-74
2022/10/23 11:34:22;;;;;;;5.28;2.30;;;17.30;68.20;;;;;;5078462;28;20055;-74
2022/10/23 11:36:50;;;;;;;4.88;2.17;;;17.30;68.60;;;;;;5058312;28;20603;-75
2022/10/23 11:39:19;;;;;;;5.15;2.05;;;17.30;68.20;;;;;;5081349;28;20058;-75
2022/10/23 11:41:51;;;;;;;4.47;2.13;;;17.30;68.20;;;;;;5081913;28;20074;-74
2022/10/23 11:44:41;;;;;;;4.65;2.17;;;17.30;68.20;;;;;;5070660;28;20059;-74
2022/10/23 11:47:27;;;;;;;4.07;1.92;;;17.30;68.00;;;;;;5066701;28;20057;-74
2022/10/23 11:50:15;;;;;;;3.40;2.10;;;17.30;68.60;;;;;;5070326;28;20071;-74
2022/10/23 11:52:54;;;;;;;4.43;2.10;;;17.30;68.10;;;;;;5070514;28;20066;-74
2022/10/23 11:55:21;;;;;;;3.28;1.90;;;17.30;68.10;;;;;;5070361;28;20058;-74
2022/10/23 11:58:20;;;;;;;4.53;2.30;;;17.30;68.10;;;;;;5090803;28;20044;-74
2022/10/23 12:00:55;;;;;;;5.22;2.00;;;17.30;68.00;;;;;;5110861;28;20139;-74
2022/10/23 12:03:23;;;;;;;4.10;2.05;;;17.30;68.00;;;;;;5095101;28;20052;-74
2022/10/23 12:05:56;;;;;;;3.45;1.75;;;17.30;68.00;;;;;;5084058;28;20052;-74
2022/10/23 12:08:26;;;;;;;3.30;1.98;;;17.30;67.90;;;;;;5090669;28;20138;-74
2022/10/23 12:10:54;;;;;;;3.42;1.92;;;17.30;68.00;;;;;;5089361;28;20063;-75
2022/10/23 12:13:30;;;;;;;4.63;2.08;;;17.30;68.00;;;;;;5080581;28;20051;-75
2022/10/23 12:15:58;;;;;;;6.25;2.00;;;17.30;68.00;;;;;;5083690;28;20058;-74
2022/10/23 12:18:26;;;;;;;4.07;1.90;;;17.30;68.10;;;;;;5088765;28;20062;-74
2022/10/23 12:20:53;;;;;;;5.38;2.10;;;17.30;68.20;;;;;;5089216;28;20058;-74
2022/10/23 12:23:38;;;;;;;5.55;2.30;;;17.30;68.20;;;;;;5090526;28;20056;-74
2022/10/23 12:26:14;;;;;;;7.07;2.30;;;17.30;68.20;;;;;;5089806;28;20481;-74
2022/10/23 12:28:43;;;;;;;5.35;2.28;;;17.30;68.30;;;;;;5092870;28;20055;-74
2022/10/23 12:31:21;;;;;;;4.20;2.17;;;17.30;68.40;;;;;;5093156;28;20056;-74
2022/10/23 12:33:51;;;;;;;6.15;2.60;;;17.30;68.40;;;;;;5086984;28;20382;-74
2022/10/23 12:36:35;;;;;;;6.35;2.22;;;17.30;68.50;;;;;;5073522;28;20076;-73
2022/10/23 12:39:02;;;;;;;6.05;2.30;;;17.30;68.70;;;;;;5073544;28;20408;-73
2022/10/23 12:41:29;;;;;;;4.50;2.30;;;17.30;68.40;;;;;;5073473;28;20052;-73
2022/10/23 12:43:57;;;;;;;5.32;2.03;;;17.30;68.40;;;;;;5073647;28;20074;-73
2022/10/23 12:46:33;;;;;;;4.90;2.30;;;17.30;68.40;;;;;;5073622;28;20058;-73
2022/10/23 12:49:00;;;;;;;5.82;2.30;;;17.20;68.30;;;;;;5085812;28;20056;-73
2022/10/23 12:51:28;;;;;;;5.95;2.30;;;17.30;68.40;;;;;;5077406;28;20052;-74
2022/10/23 12:53:55;;;;;;;7.68;2.50;;;17.20;68.40;;;;;;5073477;28;20055;-73
2022/10/23 12:56:22;;;;;;;9.07;2.63;;;17.20;68.40;;;;;;5074578;28;20404;-73
2022/10/23 12:58:49;;;;;;;6.13;2.40;;;17.20;68.40;;;;;;5072975;28;20131;-73